This is the latest recevied weather packets stored in our database for station/object LZ0VRC-10. If no packets are shown the sender has not sent any weather packets the latest 10 day(s).
| Time | Temp. | Humidity | Pressure | Rain* | Wind** | Luminosity | Snow |
|---|---|---|---|---|---|---|---|
| 1777262319 | 7.22° C | 53% | 1022.7 hPa | - | - | - | - |
| 1777261424 | 7.78° C | 52% | 1022.4 hPa | - | - | - | - |
| 1777261419 | 7.78° C | 52% | 1022.4 hPa | - | - | - | - |
| 1777260527 | 7.78° C | 49% | 1022.1 hPa | - | - | - | - |
| 1777260519 | 7.78° C | 49% | 1022.1 hPa | - | - | - | - |
| 1777259624 | 7.78° C | 48% | 1022 hPa | - | - | - | - |
| 1777259619 | 7.78° C | 48% | 1022 hPa | - | - | - | - |
| 1777258719 | 8.33° C | 47% | 1021.9 hPa | - | - | - | - |
| 1777257819 | 8.33° C | 46% | 1022 hPa | - | - | - | - |
| 1777256919 | 8.33° C | 44% | 1021.9 hPa | - | - | - | - |
| 1777256019 | 8.89° C | 43% | 1021.8 hPa | - | - | - | - |
| 1777255119 | 10.56° C | 39% | 1021.7 hPa | - | - | - | - |
| 1777254224 | 10.56° C | 38% | 1021.7 hPa | - | - | - | - |
| 1777254219 | 10.56° C | 38% | 1021.7 hPa | - | - | - | - |
| 1777253327 | 11.11° C | 36% | 1021.6 hPa | - | - | - | - |
| 1777253319 | 11.11° C | 36% | 1021.6 hPa | - | - | - | - |
| 1777252419 | 11.11° C | 35% | 1021.6 hPa | - | - | - | - |
| 1777251524 | 10.56° C | 37% | 1021.6 hPa | - | - | - | - |
| 1777251519 | 10.56° C | 37% | 1021.6 hPa | - | - | - | - |
| 1777250619 | 11.11° C | 35% | 1021.5 hPa | - | - | - | - |
| 1777249727 | 11.11° C | 35% | 1021.5 hPa | - | - | - | - |
| 1777249719 | 11.11° C | 35% | 1021.5 hPa | - | - | - | - |
| 1777248819 | 10.56° C | 36% | 1021.8 hPa | - | - | - | - |
| 1777247927 | 11.11° C | 34% | 1021.4 hPa | - | - | - | - |
| 1777247919 | 11.11° C | 34% | 1021.4 hPa | - | - | - | - |
* Rain since midnight (hover to see other rain measurements)
** Current wind speed in m/s (hover to see current wind gust speed)